Latest Weather Observations for Yeppoon

IDQ60801

Issued at 7:05 pm EST Thursday 23 October 2014 (issued every 30 minutes, with the page automatically refreshed every 10 minutes)

About weather observations | Map of weather stations | Latest weather observations for QLD | Other Formats
Station Details ID: 033294 Name: YEPPOON THE ESPLANADE Lat: -23.14 Lon: 150.75 Height: 5.5 m
Data from the previous 72 hours. | See also: Recent months at Yeppoon
Date/Time
EST
Temp
°C
App
Temp
°C
Dew
Point
Rel
Hum
%
Delta-T
°C
Wind Press
QNH
hPa
Press
MSL
hPa
Rain
since 9 am
mm
Dir
 
Spd
km/h
Gust
km/h
Spd
kts
Gust
kts
23/07:00pm 22.0 20.1 15.8 68 3.7 ENE 20 26 11 14 1019.3 1019.3 0.0
23/06:30pm 22.1 20.1 15.4 65 4.0 NE 20 28 11 15 1018.9 1018.9 0.0
23/06:00pm 22.0 19.9 15.3 65 4.0 NE 20 24 11 13 1018.7 1018.7 0.0
23/05:30pm 22.4 20.2 15.9 66 3.9 NE 22 28 12 15 1018.6 1018.6 0.0
23/05:00pm 22.6 20.9 15.8 65 4.1 ENE 19 26 10 14 1018.5 1018.5 0.0
23/04:30pm 22.7 20.9 15.9 65 4.1 ENE 20 28 11 15 1018.2 1018.2 0.0
23/04:00pm 23.1 21.6 16.2 65 4.2 ENE 19 24 10 13 1018.1 1018.1 0.0
23/03:30pm 23.5 21.9 16.4 64 4.3 NE 20 26 11 14 1018.0 1018.0 0.0
23/03:00pm 23.3 20.4 16.2 64 4.3 NE 26 32 14 17 1018.1 1018.1 0.0
23/02:30pm 24.1 22.8 16.8 63 4.5 E 19 28 10 15 1018.5 1018.5 0.0
23/02:00pm 24.2 22.9 15.9 59 5.0 E 17 24 9 13 1018.8 1018.8 0.0
23/01:30pm 24.0 22.3 15.7 59 5.0 ENE 19 26 10 14 1018.9 1018.9 0.0
23/01:00pm 24.8 23.2 15.1 54 5.8 E 17 20 9 11 1019.2 1019.2 0.0
23/12:30pm 24.6 22.4 14.5 53 6.0 E 19 24 10 13 1019.7 1019.7 0.0
23/12:00pm 24.3 22.4 15.3 57 5.4 E 19 24 10 13 1019.9 1019.9 0.0
23/11:30am 24.3 22.1 14.3 53 5.9 E 19 24 10 13 1020.4 1020.4 0.0
23/11:00am 24.1 21.6 13.6 52 6.1 E 19 24 10 13 1020.7 1020.7 0.0
23/10:30am 23.8 20.9 12.8 50 6.3 E 20 30 11 16 1021.1 1021.1 0.0
23/10:00am 23.8 22.0 14.5 56 5.5 ESE 17 24 9 13 1021.4 1021.4 0.0
23/09:30am 23.4 21.5 14.2 56 5.4 ESE 17 26 9 14 1021.5 1021.5 0.0
23/09:00am 23.3 20.7 11.9 48 6.4 ESE 17 26 9 14 1021.5 1021.5 0.0
23/08:30am 22.8 20.6 13.4 55 5.4 SE 17 26 9 14 1021.7 1021.7 0.0
23/08:00am 21.8 19.9 14.2 62 4.4 SE 17 24 9 13 1021.6 1021.6 0.0
23/07:30am 21.1 20.0 15.4 70 3.4 SSE 15 22 8 12 1021.5 1021.5 0.0
23/07:00am 20.2 19.5 15.3 73 2.9 S 13 20 7 11 1021.3 1021.3 0.0
23/06:30am 18.7 17.7 14.5 76 2.4 S 13 19 7 10 1021.2 1021.2 0.0
23/06:00am 18.0 16.9 14.3 79 2.1 S 13 19 7 10 1021.0 1021.0 0.0
23/05:30am 18.1 17.0 14.4 79 2.1 S 13 15 7 8 1020.7 1020.7 0.0
23/05:00am 19.6 18.8 14.0 70 3.2 SSE 11 19 6 10 1020.7 1020.7 0.0
23/04:30am 20.9 19.1 13.2 61 4.4 E 15 22 8 12 1020.2 1020.2 0.0
23/04:00am 20.8 18.2 13.3 62 4.3 E 19 26 10 14 1020.1 1020.1 0.0
23/03:30am 20.9 18.7 13.4 62 4.3 E 17 28 9 15 1020.0 1020.0 0.0
23/03:00am 21.0 18.5 13.5 62 4.3 E 19 28 10 15 1020.1 1020.1 0.0
23/02:30am 20.9 18.4 13.6 63 4.2 E 19 24 10 13 1020.3 1020.3 0.0
23/02:00am 21.0 18.4 13.1 60 4.5 E 19 28 10 15 1020.5 1020.5 0.0
23/01:30am 21.1 18.8 14.0 64 4.1 E 19 24 10 13 1020.8 1020.8 0.0
23/01:00am 21.2 18.8 13.9 63 4.2 ESE 19 28 10 15 1021.2 1021.2 0.0
23/12:30am 21.3 18.9 13.8 62 4.3 ESE 19 28 10 15 1021.5 1021.5 0.0
23/12:00am 21.4 19.2 14.9 66 3.8 E 20 28 11 15 1021.8 1021.8 0.0
 
Date/Time
EST
Temp
°C
App
Temp
°C
Dew
Point
Rel
Hum
%
Delta-T
°C
Wind Press
QNH
hPa
Press
MSL
hPa
Rain
since 9 am
mm
Dir
 
Spd
km/h
Gust
km/h
Spd
kts
Gust
kts
22/11:30pm 21.6 19.7 15.7 69 3.5 E 20 30 11 16 1022.0 1022.0 0.0
22/11:00pm 21.8 19.2 15.8 68 3.6 E 24 32 13 17 1022.1 1022.1 0.0
22/10:30pm 21.9 19.8 16.1 69 3.5 E 22 30 12 16 1022.1 1022.1 0.0
22/10:00pm 21.9 19.5 16.4 71 3.3 E 24 33 13 18 1022.0 1022.0 0.0
22/09:30pm 21.9 19.4 16.1 69 3.5 E 24 33 13 18 1021.9 1021.9 0.0
22/09:00pm 22.0 19.9 17.1 74 3.0 E 24 33 13 18 1021.9 1021.9 0.0
22/08:30pm 22.1 19.9 17.0 73 3.1 E 24 32 13 17 1021.5 1021.5 0.0
22/08:00pm 22.2 20.3 16.8 71 3.3 E 22 33 12 18 1021.4 1021.4 0.0
22/07:30pm 22.2 20.0 16.0 68 3.7 E 22 30 12 16 1021.2 1021.2 0.0
22/07:00pm 22.3 20.3 16.5 69 3.5 E 22 30 12 16 1021.1 1021.1 0.0
22/06:30pm 22.3 19.7 16.0 67 3.8 E 24 33 13 18 1020.8 1020.8 0.0
22/06:00pm 22.5 19.3 15.3 63 4.3 E 26 33 14 18 1020.5 1020.5 0.0
22/05:30pm 22.8 19.9 15.0 61 4.6 E 24 32 13 17 1020.4 1020.4 0.0
22/05:00pm 23.4 20.0 13.6 54 5.7 E 24 32 13 17 1020.2 1020.2 0.0
22/04:30pm 23.7 20.5 14.2 55 5.6 E 24 35 13 19 1020.0 1020.0 0.0
22/04:00pm 23.9 20.7 14.2 54 5.7 E 24 32 13 17 1019.9 1019.9 0.0
22/03:30pm 24.1 20.9 15.4 58 5.2 E 26 35 14 19 1019.7 1019.7 0.0
22/03:00pm 24.1 20.6 14.4 54 5.7 E 26 33 14 18 1019.9 1019.9 0.0
22/02:30pm 24.1 21.2 15.0 56 5.4 E 24 33 13 18 1020.1 1020.1 0.0
22/02:00pm 24.3 20.3 14.1 53 6.0 E 28 37 15 20 1020.6 1020.6 0.0
22/01:30pm 24.0 20.7 15.1 57 5.3 E 26 35 14 19 1020.9 1020.9 0.0
22/01:00pm 24.1 20.6 14.6 55 5.6 E 26 35 14 19 1021.2 1021.2 0.0
22/12:30pm 24.3 20.9 15.7 58 5.2 E 28 37 15 20 1021.6 1021.6 0.0
22/12:00pm 24.1 20.5 15.2 57 5.3 E 28 35 15 19 1022.1 1022.1 0.0
22/11:30am 23.8 21.1 15.6 60 4.9 E 24 32 13 17 1022.6 1022.6 0.0
22/11:00am 23.7 21.5 15.9 61 4.7 E 22 33 12 18 1022.8 1022.8 0.0
22/10:30am 24.6 21.4 15.4 56 5.5 E 26 35 14 19 1023.1 1023.1 0.0
22/10:00am 23.9 21.2 15.6 59 5.0 ESE 24 37 13 20 1023.2 1023.2 0.0
22/09:30am 23.9 21.6 15.8 60 4.9 ESE 22 33 12 18 1023.4 1023.4 0.0
22/09:00am 23.4 21.8 16.5 65 4.2 E 20 28 11 15 1023.4 1023.4 0.0
22/08:30am 23.5 23.0 17.0 67 4.0 E 15 20 8 11 1023.6 1023.6 0.0
22/08:00am 22.2 20.7 16.8 71 3.3 SE 20 28 11 15 1023.2 1023.2 0.0
22/07:30am 22.1 20.2 16.7 71 3.3 SE 22 35 12 19 1023.0 1023.0 0.0
22/07:00am 21.5 20.3 17.4 77 2.5 SSE 20 28 11 15 1022.8 1022.8 0.0
22/06:30am 21.3 20.7 17.6 79 2.3 SSE 17 24 9 13 1022.6 1022.6 0.0
22/06:00am 20.8 21.1 17.9 83 1.8 SSE 13 22 7 12 1022.3 1022.3 0.0
22/05:30am 20.6 20.1 17.7 83 1.8 SSE 17 22 9 12 1022.0 1022.0 0.0
22/05:00am 21.1 20.1 17.9 82 2.0 SE 20 32 11 17 1021.6 1021.6 0.0
22/04:30am 20.9 20.3 17.6 81 2.0 SE 17 26 9 14 1021.4 1021.4 0.0
22/04:00am 21.6 19.1 17.0 75 2.8 E 26 37 14 20 1021.3 1021.3 0.0
22/03:30am 21.8 19.4 16.3 71 3.3 E 24 33 13 18 1021.4 1021.4 0.0
22/03:00am 21.7 20.1 16.4 72 3.2 E 20 32 11 17 1021.6 1021.6 0.0
22/02:30am 21.6 19.6 16.5 73 3.1 E 22 35 12 19 1021.9 1021.9 0.0
22/02:00am 21.6 19.7 16.8 74 2.9 E 22 30 12 16 1022.0 1022.0 0.0
22/01:30am 21.6 20.0 16.6 73 3.0 E 20 32 11 17 1022.4 1022.4 0.0
22/01:00am 21.7 20.1 16.6 73 3.1 ESE 20 28 11 15 1022.8 1022.8 0.0
22/12:30am 21.8 19.8 16.5 72 3.2 E 22 33 12 18 1023.3 1023.3 0.0
22/12:00am 21.9 19.2 16.6 72 3.2 E 26 35 14 19 1023.6 1023.6 0.0
 
Date/Time
EST
Temp
°C
App
Temp
°C
Dew
Point
Rel
Hum
%
Delta-T
°C
Wind Press
QNH
hPa
Press
MSL
hPa
Rain
since 9 am
mm
Dir
 
Spd
km/h
Gust
km/h
Spd
kts
Gust
kts
21/11:30pm 21.9 18.8 16.6 72 3.2 E 28 39 15 21 1023.9 1023.9 0.0
21/11:00pm 22.0 18.7 16.0 68 3.6 E 28 35 15 19 1024.1 1024.1 0.0
21/10:30pm 22.0 19.3 16.5 71 3.3 E 26 41 14 22 1024.3 1024.3 0.0
21/10:00pm 22.0 18.2 15.8 68 3.7 E 30 39 16 21 1024.5 1024.5 0.0
21/09:30pm 22.1 18.4 16.1 69 3.6 E 30 43 16 23 1024.5 1024.5 0.0
21/09:00pm 22.1 18.6 15.4 65 4.0 E 28 39 15 21 1024.4 1024.4 0.0
21/08:30pm 22.2 18.0 16.2 69 3.6 E 33 44 18 24 1024.2 1024.2 0.0
21/08:00pm 22.4 18.6 16.8 70 3.4 E 32 41 17 22 1023.8 1023.8 0.0
21/07:32pm 22.5 18.3 17.1 71 3.3 E 35 54 19 29 1023.4 1023.4 0.0
21/07:30pm 22.4 17.2 16.5 69 3.6 E 39 54 21 29 1023.4 1023.4 0.0
21/07:00pm 22.5 18.8 16.0 66 3.9 E 30 41 16 22 1023.0 1023.0 0.0
21/06:30pm 22.5 18.2 15.3 63 4.3 E 32 41 17 22 1022.8 1022.8 0.0
21/06:00pm 22.5 18.8 14.9 62 4.5 E 28 39 15 21 1022.9 1022.9 0.0
21/05:30pm 22.8 18.6 14.6 60 4.8 E 30 43 16 23 1022.7 1022.7 0.0
21/05:00pm 23.1 18.8 14.4 58 5.1 E 30 39 16 21 1022.4 1022.4 0.0
21/04:30pm 23.4 19.4 14.2 56 5.4 E 28 37 15 20 1022.0 1022.0 0.0
21/04:00pm 23.6 20.0 14.2 55 5.5 E 26 35 14 19 1022.0 1022.0 0.0
21/03:30pm 24.1 21.0 14.4 54 5.7 E 24 33 13 18 1022.0 1022.0 0.0
21/03:00pm 24.4 20.7 14.0 52 6.1 E 26 35 14 19 1022.0 1022.0 0.0
21/02:30pm 24.6 21.0 15.3 56 5.6 E 28 39 15 21 1022.0 1022.0 0.0
21/02:00pm 24.5 21.1 14.7 54 5.8 E 26 37 14 20 1022.4 1022.4 0.0
21/01:30pm 24.7 20.3 14.0 51 6.3 E 30 41 16 22 1022.6 1022.6 0.0
21/01:00pm 25.0 21.5 13.5 48 6.7 ESE 24 35 13 19 1023.1 1023.1 0.0
21/12:30pm 24.6 20.8 13.6 50 6.4 ESE 26 41 14 22 1023.5 1023.5 0.0
21/12:00pm 24.9 22.1 14.2 51 6.3 ESE 22 33 12 18 1023.8 1023.8 0.0
21/11:30am 24.3 21.1 14.3 53 5.9 ESE 24 39 13 21 1024.2 1024.2 0.0
21/11:00am 24.3 20.9 14.7 55 5.7 ESE 26 39 14 21 1024.4 1024.4 0.0
21/10:30am 24.1 21.5 16.0 60 4.9 SE 24 37 13 20 1024.7 1024.7 0.0
21/10:00am 23.8 20.9 16.2 62 4.6 ESE 26 37 14 20 1024.8 1024.8 0.0
21/09:30am 23.6 21.0 16.0 62 4.6 ESE 24 37 13 20 1024.8 1024.8 0.0
21/09:00am 23.4 21.0 15.5 61 4.7 ESE 22 33 12 18 1024.9 1024.9 0.0
21/08:30am 23.5 21.4 15.3 60 4.9 ESE 20 30 11 16 1024.5 1024.5 0.0
21/08:00am 22.7 21.1 16.4 67 3.8 SE 20 32 11 17 1024.3 1024.3 0.0
21/07:30am 22.3 20.7 16.5 69 3.5 SE 20 30 11 16 1023.9 1023.9 0.0
21/07:00am 21.9 19.6 15.7 68 3.7 SE 22 30 12 16 1023.5 1023.5 0.0
21/06:30am 21.6 19.6 15.4 68 3.7 SSE 20 30 11 16 1023.0 1023.0 0.0
21/06:00am 21.9 18.8 14.6 63 4.3 ESE 24 35 13 19 1022.6 1022.6 0.0
21/05:30am 21.6 19.1 13.4 59 4.7 ESE 19 30 10 16 1022.4 1022.4 0.0
21/05:00am 21.6 18.8 14.4 63 4.2 ESE 22 37 12 20 1022.1 1022.1 0.0
21/04:30am 21.6 18.9 14.6 64 4.1 ESE 22 35 12 19 1021.8 1021.8 0.0
21/04:00am 21.7 18.6 14.5 63 4.2 E 24 37 13 20 1021.7 1021.7 0.0
21/03:30am 21.6 17.4 13.6 60 4.6 E 28 39 15 21 1021.6 1021.6 0.0
21/03:00am 21.4 18.9 14.2 63 4.2 ESE 20 33 11 18 1021.6 1021.6 0.0
21/02:30am 21.5 17.9 14.3 63 4.2 E 26 39 14 21 1021.5 1021.5 0.0
21/02:00am 21.6 18.1 15.4 68 3.7 E 28 37 15 20 1021.6 1021.6 0.0
21/01:30am 21.6 18.2 15.9 70 3.4 E 28 37 15 20 1021.9 1021.9 0.0
21/01:00am 21.7 19.1 16.0 70 3.4 E 24 35 13 19 1022.1 1022.1 0.0
21/12:30am 21.9 19.5 15.5 67 3.8 E 22 35 12 19 1022.6 1022.6 0.0
21/12:00am 21.7 19.6 15.1 66 3.9 E 20 28 11 15 1023.0 1023.0 0.0
 
Date/Time
EST
Temp
°C
App
Temp
°C
Dew
Point
Rel
Hum
%
Delta-T
°C
Wind Press
QNH
hPa
Press
MSL
hPa
Rain
since 9 am
mm
Dir
 
Spd
km/h
Gust
km/h
Spd
kts
Gust
kts
20/11:30pm 21.7 19.4 14.7 64 4.1 E 20 30 11 16 1023.6 1023.6 0.0
20/11:00pm 21.8 18.7 14.4 63 4.3 E 24 32 13 17 1023.9 1023.9 0.0
20/10:30pm 21.9 18.8 14.5 63 4.3 E 24 35 13 19 1024.0 1024.0 0.0
20/10:00pm 21.8 19.6 15.0 65 4.0 E 20 30 11 16 1024.0 1024.0 0.0
20/09:30pm 21.7 19.0 14.7 64 4.1 E 22 30 12 16 1023.9 1023.9 0.0
20/09:00pm 21.7 19.7 15.5 68 3.7 E 20 28 11 15 1023.9 1023.9 0.0
20/08:30pm 21.7 19.8 15.1 66 3.9 E 19 24 10 13 1023.5 1023.5 0.0
20/08:00pm 21.7 19.5 14.5 63 4.2 E 19 26 10 14 1023.0 1023.0 0.0
20/07:30pm 21.8 19.7 14.6 63 4.2 E 19 28 10 15 1022.6 1022.6 0.0

Other Formats:

Comma delimited format used in spreadsheet applications
http://www.bom.gov.au/fwo/IDQ60801/IDQ60801.94373.axf

JavaScript Object Notation format (JSON) in row-major order
http://www.bom.gov.au/fwo/IDQ60801/IDQ60801.94373.json